Terminal Aerodrome Forecast
Issued by NWS

Home | Current Version | Previous Version | Text Only | Print | Product List | Glossary On
Versions: 1 2 3 4 5 6 7 8 9 10 11 12 13 14 15
000
FTAK31 PAJN 200500 RRA
TAFASI
TAF
PASI 200541Z 2006/2106 10015G25KT P6SM VCSH BKN070 BKN100
      WS020/13045KT
      TEMPO 2006/2010 10020G30KT 6SM -SHRA BR BKN050 OVC070
     FM201200 14015G25KT 5SM -RA BR BKN025 OVC050
     FM201800 12010G20KT 6SM -SHRA BKN030 OVC050=

USA.gov is the U.S. government's official web portal to all federal, state and local government web resources and services.